createdAt,value
2019-01-15T00:01:24.905Z,1.50
2019-01-15T00:03:28.206Z,1.50
2019-01-15T00:05:29.616Z,1.60
2019-01-15T00:07:30.986Z,1.60
2019-01-15T00:09:32.414Z,1.60
2019-01-15T00:11:33.795Z,1.60
2019-01-15T00:13:35.162Z,1.60
2019-01-15T00:15:36.528Z,1.60
2019-01-15T00:17:37.961Z,1.60
2019-01-15T00:19:39.388Z,1.60
2019-01-15T00:21:40.803Z,1.60
2019-01-15T00:23:42.139Z,1.60
2019-01-15T00:25:43.524Z,1.60
2019-01-15T00:27:44.976Z,1.60
2019-01-15T00:29:46.346Z,1.70
2019-01-15T00:31:47.758Z,1.70
2019-01-15T00:33:49.159Z,1.70
2019-01-15T00:35:50.543Z,1.70
2019-01-15T00:37:53.870Z,1.70
2019-01-15T00:39:55.258Z,1.70
2019-01-15T00:41:56.650Z,1.80
2019-01-15T00:43:58.017Z,1.80
2019-01-15T00:45:59.437Z,1.80
2019-01-15T00:48:00.794Z,1.80
2019-01-15T00:50:06.609Z,1.80
2019-01-15T00:52:08.066Z,1.80
2019-01-15T00:54:09.403Z,1.80
2019-01-15T00:56:10.826Z,1.90
2019-01-15T00:58:12.478Z,1.90
2019-01-15T01:00:20.858Z,1.90
2019-01-15T01:02:22.219Z,1.90
2019-01-15T01:04:23.657Z,2.00
2019-01-15T01:06:25.086Z,1.90
2019-01-15T01:08:26.539Z,2.00
2019-01-15T01:10:27.929Z,1.90
2019-01-15T01:12:29.322Z,1.90
2019-01-15T01:14:30.757Z,1.90
2019-01-15T01:16:32.179Z,1.90
2019-01-15T01:18:33.575Z,1.90
2019-01-15T01:20:35.108Z,1.90
2019-01-15T01:22:36.483Z,1.90
2019-01-15T01:24:37.865Z,1.90
2019-01-15T01:26:39.297Z,1.90
2019-01-15T01:28:40.683Z,1.90
2019-01-15T01:30:42.019Z,1.90
2019-01-15T01:32:43.592Z,1.90
2019-01-15T01:34:44.947Z,1.90
2019-01-15T01:36:46.329Z,1.80
2019-01-15T01:38:47.736Z,1.90
2019-01-15T01:40:49.187Z,1.90
2019-01-15T01:42:50.530Z,1.90
2019-01-15T01:44:51.947Z,1.90
2019-01-15T01:46:53.371Z,1.90
2019-01-15T01:48:54.759Z,1.90
2019-01-15T01:50:56.195Z,2.00
2019-01-15T01:52:57.596Z,2.00
2019-01-15T01:54:58.925Z,2.00
2019-01-15T01:57:00.354Z,2.00
2019-01-15T01:59:01.772Z,2.00
2019-01-15T02:01:03.567Z,2.10
2019-01-15T02:03:04.911Z,2.10
2019-01-15T02:05:06.375Z,2.10
2019-01-15T02:07:07.806Z,2.10
2019-01-15T02:09:09.178Z,2.10
2019-01-15T02:11:10.554Z,2.10
2019-01-15T02:13:11.950Z,2.10
2019-01-15T02:15:19.329Z,2.10
2019-01-15T02:17:20.661Z,2.00
2019-01-15T02:19:22.096Z,2.00
2019-01-15T02:21:23.533Z,2.00
2019-01-15T02:23:24.960Z,2.00
2019-01-15T02:25:26.361Z,1.90
2019-01-15T02:27:28.242Z,1.90
2019-01-15T02:29:29.635Z,1.90
2019-01-15T02:31:31.049Z,1.90
2019-01-15T02:33:32.389Z,1.90
2019-01-15T02:35:33.784Z,1.80
2019-01-15T02:37:35.194Z,1.80
2019-01-15T02:39:36.695Z,1.70
2019-01-15T02:41:38.295Z,1.70
2019-01-15T02:43:39.660Z,1.60
2019-01-15T02:45:41.124Z,1.60
2019-01-15T02:47:42.537Z,1.60
2019-01-15T02:49:44.115Z,1.60
2019-01-15T02:51:45.514Z,1.50
2019-01-15T02:53:47.084Z,1.60
2019-01-15T02:55:48.452Z,1.50
2019-01-15T02:57:49.879Z,1.50
2019-01-15T02:59:51.269Z,1.50
2019-01-15T03:01:52.598Z,1.40
2019-01-15T03:03:54.061Z,1.40
2019-01-15T03:05:55.562Z,1.30
2019-01-15T03:07:56.904Z,1.30
2019-01-15T03:09:58.268Z,1.30
2019-01-15T03:11:59.893Z,1.30
2019-01-15T03:14:01.224Z,1.30
2019-01-15T03:16:03.252Z,1.30
2019-01-15T03:18:04.737Z,1.30
2019-01-15T03:20:10.403Z,1.30
2019-01-15T03:22:11.811Z,1.30
2019-01-15T03:24:13.177Z,1.30
2019-01-15T03:26:14.587Z,1.30
2019-01-15T03:28:15.948Z,1.40
2019-01-15T03:30:21.948Z,1.40
2019-01-15T03:32:23.314Z,1.40
2019-01-15T03:34:24.679Z,1.40
2019-01-15T03:36:26.287Z,1.40
2019-01-15T03:38:27.653Z,1.40
2019-01-15T03:40:29.090Z,1.40
2019-01-15T03:42:30.519Z,1.40
2019-01-15T03:44:31.891Z,1.40
2019-01-15T03:46:33.236Z,1.40
2019-01-15T03:48:34.834Z,1.40
2019-01-15T03:50:36.190Z,1.50
2019-01-15T03:52:37.561Z,1.50
2019-01-15T03:54:38.965Z,1.50
2019-01-15T03:56:40.331Z,1.50
2019-01-15T03:58:41.727Z,1.50
2019-01-15T04:00:43.095Z,1.60
2019-01-15T04:02:45.210Z,1.60
2019-01-15T04:04:47.524Z,1.70
2019-01-15T04:06:48.853Z,1.70
2019-01-15T04:08:50.462Z,1.70
2019-01-15T04:10:51.833Z,1.80
2019-01-15T04:12:53.203Z,1.80
2019-01-15T04:14:54.597Z,1.80
2019-01-15T04:16:55.965Z,1.80
2019-01-15T04:18:57.359Z,1.80
2019-01-15T04:20:58.821Z,1.80
2019-01-15T04:23:00.258Z,1.80
2019-01-15T04:25:01.747Z,1.90
2019-01-15T04:27:03.625Z,1.90
2019-01-15T04:29:05.004Z,1.90
2019-01-15T04:31:06.362Z,1.90
2019-01-15T04:33:07.774Z,2.00
2019-01-15T04:35:09.451Z,2.10
2019-01-15T04:37:10.869Z,2.00
2019-01-15T04:39:12.401Z,2.10
2019-01-15T04:41:13.880Z,2.10
2019-01-15T04:43:19.952Z,2.10
2019-01-15T04:45:19.775Z,2.20
2019-01-15T04:47:21.123Z,2.20
2019-01-15T04:49:22.520Z,2.10
2019-01-15T04:51:24.074Z,2.10
2019-01-15T04:53:25.477Z,2.20
2019-01-15T04:55:26.831Z,2.20
2019-01-15T04:57:28.298Z,2.20
2019-01-15T04:59:30.197Z,2.30
2019-01-15T05:01:31.570Z,2.20
2019-01-15T05:03:32.991Z,2.20
2019-01-15T05:05:34.391Z,2.20
2019-01-15T05:07:36.036Z,2.20
2019-01-15T05:09:37.489Z,2.20
2019-01-15T05:11:38.899Z,2.30
2019-01-15T05:13:40.289Z,2.30
2019-01-15T05:15:41.710Z,2.30
2019-01-15T05:17:43.146Z,2.30
2019-01-15T05:19:44.512Z,2.30
2019-01-15T05:21:45.916Z,2.30
2019-01-15T05:23:47.276Z,2.40
2019-01-15T05:25:48.668Z,2.40
2019-01-15T05:27:50.184Z,2.40
2019-01-15T05:29:51.647Z,2.40
2019-01-15T05:31:53.034Z,2.30
2019-01-15T05:33:54.396Z,2.40
2019-01-15T05:35:55.766Z,2.30
2019-01-15T05:37:57.134Z,2.40
2019-01-15T05:39:58.840Z,2.40
2019-01-15T05:42:00.192Z,2.40
2019-01-15T05:44:01.680Z,2.40
2019-01-15T05:46:03.476Z,2.50
2019-01-15T05:48:09.379Z,2.50
2019-01-15T05:50:12.873Z,2.50
2019-01-15T05:52:14.493Z,2.50
2019-01-15T05:54:16.359Z,2.50
2019-01-15T05:56:17.746Z,2.50
2019-01-15T05:58:19.195Z,2.60
2019-01-15T06:00:20.526Z,2.60
2019-01-15T06:02:22.011Z,2.60
2019-01-15T06:04:23.360Z,2.60
2019-01-15T06:06:24.937Z,2.60
2019-01-15T06:08:26.318Z,2.60
2019-01-15T06:10:27.743Z,2.60
2019-01-15T06:12:29.174Z,2.60
2019-01-15T06:14:30.575Z,2.60
2019-01-15T06:16:32.024Z,2.60
2019-01-15T06:18:33.387Z,2.60
2019-01-15T06:20:34.971Z,2.60
2019-01-15T06:22:36.378Z,2.60
2019-01-15T06:24:37.832Z,2.60
2019-01-15T06:26:39.240Z,2.60
2019-01-15T06:28:40.957Z,2.70
2019-01-15T06:30:42.321Z,2.70
2019-01-15T06:32:43.672Z,2.80
2019-01-15T06:34:45.096Z,2.80
2019-01-15T06:36:46.457Z,2.80
2019-01-15T06:38:47.857Z,2.70
2019-01-15T06:40:49.293Z,2.80
2019-01-15T06:42:50.645Z,2.70
2019-01-15T06:44:52.109Z,2.80
2019-01-15T06:46:53.552Z,2.80
2019-01-15T06:48:54.953Z,2.80
2019-01-15T06:50:56.329Z,2.80
2019-01-15T06:52:57.774Z,2.80
2019-01-15T06:54:59.171Z,2.70
2019-01-15T06:57:00.610Z,2.80
2019-01-15T06:59:02.182Z,2.80
2019-01-15T07:01:03.762Z,2.90
2019-01-15T07:03:05.278Z,2.90
2019-01-15T07:05:08.399Z,2.90
2019-01-15T07:07:10.091Z,2.90
2019-01-15T07:09:11.543Z,2.90
2019-01-15T07:11:12.937Z,2.90
2019-01-15T07:13:14.366Z,2.80
2019-01-15T07:15:15.742Z,2.90
2019-01-15T07:17:17.156Z,2.90
2019-01-15T07:19:18.532Z,2.90
2019-01-15T07:21:19.992Z,2.90
2019-01-15T07:23:21.405Z,2.90
2019-01-15T07:25:26.210Z,2.90
2019-01-15T07:27:27.704Z,2.90
2019-01-15T07:29:29.114Z,2.90
2019-01-15T07:31:30.555Z,2.80
2019-01-15T07:33:31.935Z,2.90
2019-01-15T07:35:33.381Z,2.80
2019-01-15T07:37:34.788Z,2.80
2019-01-15T07:39:36.181Z,2.80
2019-01-15T07:41:37.593Z,2.70
2019-01-15T07:43:39.025Z,2.70
2019-01-15T07:45:40.404Z,2.70
2019-01-15T07:47:41.815Z,2.70
2019-01-15T07:49:43.414Z,2.70
2019-01-15T07:51:44.865Z,2.70
2019-01-15T07:53:46.221Z,2.70
2019-01-15T07:55:47.681Z,2.70
2019-01-15T07:57:49.200Z,2.70
2019-01-15T07:59:50.595Z,2.70
2019-01-15T08:01:52.504Z,2.70
2019-01-15T08:03:54.004Z,2.70
2019-01-15T08:05:55.383Z,2.60
2019-01-15T08:07:57.012Z,2.60
2019-01-15T08:09:58.352Z,2.60
2019-01-15T08:11:59.771Z,2.70
2019-01-15T08:14:01.179Z,2.70
2019-01-15T08:16:02.864Z,2.70
2019-01-15T08:18:04.282Z,2.70
2019-01-15T08:20:12.182Z,2.70
2019-01-15T08:22:13.589Z,2.70
2019-01-15T08:24:15.026Z,2.70
2019-01-15T08:26:16.467Z,2.70
2019-01-15T08:28:17.852Z,2.80
2019-01-15T08:30:26.290Z,2.70
2019-01-15T08:32:27.712Z,2.80
2019-01-15T08:34:29.056Z,2.70
2019-01-15T08:36:30.559Z,2.80
2019-01-15T08:38:32.237Z,2.80
2019-01-15T08:40:33.598Z,2.90
2019-01-15T08:42:34.984Z,2.80
2019-01-15T08:44:36.794Z,2.80
2019-01-15T08:46:38.189Z,2.80
2019-01-15T08:48:39.930Z,2.60
2019-01-15T08:50:41.428Z,2.50
2019-01-15T08:52:42.855Z,2.40
2019-01-15T08:54:44.225Z,2.20
2019-01-15T08:56:45.645Z,2.00
2019-01-15T08:58:47.094Z,1.90
2019-01-15T09:00:48.454Z,1.80
2019-01-15T09:02:49.824Z,1.80
2019-01-15T09:04:51.286Z,1.80
2019-01-15T09:06:52.644Z,1.80
2019-01-15T09:08:54.031Z,1.80
2019-01-15T09:10:55.425Z,1.80
2019-01-15T09:12:56.882Z,1.80
2019-01-15T09:14:58.283Z,1.70
2019-01-15T09:16:59.672Z,1.80
2019-01-15T09:19:01.232Z,1.70
2019-01-15T09:21:02.619Z,1.80
2019-01-15T09:23:04.000Z,1.80
2019-01-15T09:25:05.760Z,1.80
2019-01-15T09:27:07.286Z,1.80
2019-01-15T09:29:08.624Z,1.90
2019-01-15T09:31:10.008Z,1.90
2019-01-15T09:33:11.436Z,1.90
2019-01-15T09:35:12.892Z,2.00
2019-01-15T09:37:14.569Z,2.00
2019-01-15T09:39:16.026Z,2.10
2019-01-15T09:41:17.408Z,2.10
2019-01-15T09:43:18.771Z,2.20
2019-01-15T09:45:21.795Z,2.20
2019-01-15T09:47:23.160Z,2.20
2019-01-15T09:49:24.524Z,2.20
2019-01-15T09:51:25.920Z,2.20
2019-01-15T09:53:27.318Z,2.30
2019-01-15T09:55:28.661Z,2.30
2019-01-15T09:57:30.258Z,2.30
2019-01-15T09:59:31.650Z,2.30
2019-01-15T10:01:33.097Z,2.30
2019-01-15T10:03:34.505Z,2.30
2019-01-15T10:05:35.942Z,2.40
2019-01-15T10:07:37.307Z,2.40
2019-01-15T10:09:38.686Z,2.50
2019-01-15T10:11:40.100Z,2.50
2019-01-15T10:13:41.491Z,2.50
2019-01-15T10:15:42.901Z,2.60
2019-01-15T10:17:44.392Z,2.70
2019-01-15T10:19:46.050Z,2.70
2019-01-15T10:21:48.089Z,2.70
2019-01-15T10:23:49.458Z,2.70
2019-01-15T10:25:51.251Z,2.80
2019-01-15T10:27:53.698Z,2.80
2019-01-15T10:29:59.278Z,2.80
2019-01-15T10:32:31.363Z,2.90
2019-01-15T10:34:35.432Z,2.90
2019-01-15T10:36:36.482Z,3.00
2019-01-15T10:38:37.871Z,3.00
2019-01-15T10:40:39.237Z,3.00
2019-01-15T10:42:40.606Z,3.00
2019-01-15T10:44:48.473Z,3.00
2019-01-15T10:46:45.319Z,3.10
2019-01-15T10:48:46.735Z,3.10
2019-01-15T10:50:48.159Z,3.10
2019-01-15T10:52:49.536Z,3.10
2019-01-15T10:54:50.968Z,3.20
2019-01-15T10:56:52.348Z,3.20
2019-01-15T10:58:53.726Z,3.20
2019-01-15T11:00:55.234Z,3.20
2019-01-15T11:02:56.591Z,3.30
2019-01-15T11:04:57.967Z,3.30
2019-01-15T11:06:59.541Z,3.20
2019-01-15T11:09:00.941Z,3.30
2019-01-15T11:11:02.315Z,3.30
2019-01-15T11:13:04.097Z,3.30
2019-01-15T11:15:07.079Z,3.30
2019-01-15T11:17:08.468Z,3.20
2019-01-15T11:19:10.050Z,3.30
2019-01-15T11:21:11.544Z,3.30
2019-01-15T11:23:13.004Z,3.30
2019-01-15T11:25:14.494Z,3.30
2019-01-15T11:27:15.914Z,3.30
2019-01-15T11:29:17.271Z,3.30
2019-01-15T11:31:18.702Z,3.30
2019-01-15T11:33:20.121Z,3.30
2019-01-15T11:35:21.531Z,3.30
2019-01-15T11:37:22.908Z,3.40
2019-01-15T11:39:24.287Z,3.40
2019-01-15T11:41:25.796Z,3.40
2019-01-15T11:43:27.166Z,3.50
2019-01-15T11:45:29.429Z,3.50
2019-01-15T11:47:31.209Z,3.60
2019-01-15T11:49:32.572Z,3.60
2019-01-15T11:51:33.968Z,3.60
2019-01-15T11:53:35.364Z,3.70
2019-01-15T11:55:36.733Z,3.70
2019-01-15T11:57:38.148Z,3.70
2019-01-15T11:59:39.668Z,3.70
2019-01-15T12:01:41.630Z,3.80
2019-01-15T12:03:44.907Z,3.80
2019-01-15T12:05:53.865Z,3.80
2019-01-15T12:07:59.777Z,3.90
2019-01-15T12:10:03.498Z,3.90
2019-01-15T12:12:06.811Z,3.90
2019-01-15T12:14:26.469Z,3.90
2019-01-15T12:16:32.369Z,3.90
2019-01-15T12:18:38.554Z,3.90
2019-01-15T12:20:58.140Z,3.90
2019-01-15T12:23:01.515Z,3.90
2019-01-15T12:25:07.865Z,3.80
2019-01-15T12:27:20.044Z,3.80
2019-01-15T12:29:32.115Z,3.70
2019-01-15T12:31:44.056Z,3.70
2019-01-15T12:34:02.145Z,3.60
2019-01-15T12:36:23.522Z,3.60
2019-01-15T12:38:44.858Z,3.60
2019-01-15T12:40:48.142Z,3.50
2019-01-15T12:42:51.428Z,3.50
2019-01-15T12:45:03.375Z,3.50
2019-01-15T12:47:23.040Z,3.50
2019-01-15T12:49:42.573Z,3.40
2019-01-15T12:51:48.547Z,3.40
2019-01-15T12:54:00.865Z,3.40
2019-01-15T12:56:21.932Z,3.40
2019-01-15T12:58:41.700Z,3.40
2019-01-15T13:00:47.634Z,3.40
2019-01-15T13:02:56.574Z,3.40
2019-01-15T13:04:59.846Z,3.40
2019-01-15T13:07:12.098Z,3.40
2019-01-15T13:09:15.386Z,3.50
2019-01-15T13:11:24.678Z,3.50
2019-01-15T13:13:33.657Z,3.40
2019-01-15T13:15:39.576Z,3.40
2019-01-15T13:17:45.541Z,3.50
2019-01-15T13:20:05.344Z,3.40
2019-01-15T13:22:17.291Z,3.40
2019-01-15T13:24:20.557Z,3.50
2019-01-15T13:26:41.891Z,3.50
2019-01-15T13:28:54.475Z,3.50
2019-01-15T13:31:03.531Z,3.50
2019-01-15T13:33:15.824Z,3.50
2019-01-15T13:35:19.138Z,3.50
2019-01-15T13:37:31.456Z,3.60
2019-01-15T13:39:37.348Z,3.60
2019-01-15T13:41:43.555Z,3.60
2019-01-15T13:43:46.909Z,3.70
2019-01-15T13:46:00.727Z,3.70
2019-01-15T13:48:01.260Z,3.70
2019-01-15T13:50:24.763Z,3.80
2019-01-15T13:52:30.777Z,3.80
2019-01-15T13:54:36.846Z,3.80
2019-01-15T13:56:40.113Z,3.90
2019-01-15T13:59:01.250Z,3.90
2019-01-15T14:01:20.044Z,3.90
2019-01-15T14:03:26.085Z,3.90
2019-01-15T14:05:35.453Z,4.00
2019-01-15T14:07:55.317Z,4.00
2019-01-15T14:10:13.502Z,4.00
2019-01-15T14:12:16.765Z,4.00
2019-01-15T14:14:22.653Z,4.10
2019-01-15T14:16:34.733Z,4.10
2019-01-15T14:18:54.613Z,4.10
2019-01-15T14:20:57.917Z,4.10
2019-01-15T14:23:04.075Z,4.10
2019-01-15T14:25:09.960Z,4.20
2019-01-15T14:27:19.419Z,4.20
2019-01-15T14:29:34.479Z,4.20
2019-01-15T14:31:40.474Z,4.20
2019-01-15T14:33:46.456Z,4.20
2019-01-15T14:36:01.693Z,4.30
2019-01-15T14:38:14.839Z,4.30
2019-01-15T14:40:20.777Z,4.30
2019-01-15T14:42:40.350Z,4.30
2019-01-15T14:44:46.330Z,4.30
2019-01-15T14:47:06.158Z,4.40
2019-01-15T14:49:24.230Z,4.40
2019-01-15T14:51:36.476Z,4.40
2019-01-15T14:53:56.311Z,4.40
2019-01-15T14:55:59.578Z,4.40
2019-01-15T14:58:14.716Z,4.40
2019-01-15T15:00:28.948Z,4.40
2019-01-15T15:02:35.264Z,4.40
2019-01-15T15:04:44.575Z,4.40
2019-01-15T15:06:50.515Z,4.40
2019-01-15T15:09:05.833Z,4.40
2019-01-15T15:11:17.916Z,4.50
2019-01-15T15:13:29.869Z,4.40
2019-01-15T15:15:39.317Z,4.50
2019-01-15T15:17:42.598Z,4.50
2019-01-15T15:19:48.540Z,4.50
2019-01-15T15:21:54.652Z,4.50
2019-01-15T15:23:57.937Z,4.50
2019-01-15T15:26:07.250Z,4.50
2019-01-15T15:28:16.465Z,4.50
2019-01-15T15:30:31.824Z,4.50
2019-01-15T15:32:35.083Z,4.50
2019-01-15T15:34:54.857Z,4.60
2019-01-15T15:36:58.179Z,4.60
2019-01-15T15:39:13.173Z,4.60
2019-01-15T15:41:28.530Z,4.60
2019-01-15T15:43:34.471Z,4.60
2019-01-15T15:45:37.746Z,4.60
2019-01-15T15:47:41.167Z,4.60
2019-01-15T15:49:50.504Z,4.60
2019-01-15T15:52:10.061Z,4.60
2019-01-15T15:54:29.689Z,4.60
2019-01-15T15:56:32.974Z,4.60
2019-01-15T15:58:36.235Z,4.70
2019-01-15T16:00:56.100Z,4.70
2019-01-15T16:02:59.593Z,4.70
2019-01-15T16:05:02.853Z,4.70
2019-01-15T16:07:15.204Z,4.70
2019-01-15T16:09:21.195Z,4.70
2019-01-15T16:11:30.336Z,4.80
2019-01-15T16:13:50.180Z,4.80
2019-01-15T16:15:56.075Z,4.80
2019-01-15T16:18:01.968Z,4.90
2019-01-15T16:20:11.796Z,4.90
2019-01-15T16:22:26.832Z,4.90
2019-01-15T16:24:38.898Z,4.90
2019-01-15T16:26:45.148Z,4.90
2019-01-15T16:28:51.365Z,5.00
2019-01-15T16:31:03.643Z,5.00
2019-01-15T16:33:21.890Z,5.10
2019-01-15T16:35:41.728Z,5.10
2019-01-15T16:37:53.720Z,5.10
2019-01-15T16:40:08.885Z,5.10
2019-01-15T16:42:29.994Z,5.10
2019-01-15T16:44:36.190Z,5.20
2019-01-15T16:46:48.305Z,5.10
2019-01-15T16:48:51.565Z,5.20
2019-01-15T16:50:54.870Z,5.20
2019-01-15T16:53:14.866Z,5.20
2019-01-15T16:55:20.891Z,5.20
2019-01-15T16:57:33.281Z,5.20
2019-01-15T16:59:53.055Z,5.20
2019-01-15T17:02:01.868Z,5.30
2019-01-15T17:04:10.894Z,5.30
2019-01-15T17:06:16.939Z,5.30
2019-01-15T17:08:22.923Z,5.40
2019-01-15T17:10:44.354Z,5.30
2019-01-15T17:12:50.955Z,5.40
2019-01-15T17:15:06.178Z,5.40
2019-01-15T17:17:09.513Z,5.40
2019-01-15T17:19:15.401Z,5.50
2019-01-15T17:21:24.482Z,5.50
2019-01-15T17:23:30.767Z,5.60
2019-01-15T17:25:48.854Z,5.60
2019-01-15T17:28:04.173Z,5.60
2019-01-15T17:30:17.841Z,5.60
2019-01-15T17:32:33.031Z,5.60
2019-01-15T17:34:36.291Z,5.60
2019-01-15T17:36:48.951Z,5.60
2019-01-15T17:39:08.690Z,5.70
2019-01-15T17:41:20.670Z,5.70
2019-01-15T17:43:41.830Z,5.70
2019-01-15T17:46:01.317Z,5.70
2019-01-15T17:48:07.748Z,5.80
2019-01-15T17:50:22.143Z,5.80
2019-01-15T17:52:28.299Z,5.80
2019-01-15T17:54:43.323Z,5.80
2019-01-15T17:56:55.392Z,5.80
2019-01-15T17:59:15.170Z,5.90
2019-01-15T18:01:36.315Z,5.90
2019-01-15T18:03:39.658Z,5.90
2019-01-15T18:05:59.469Z,5.90
2019-01-15T18:08:05.416Z,5.90
2019-01-15T18:10:16.376Z,5.90
2019-01-15T18:12:36.043Z,5.90
2019-01-15T18:14:55.742Z,5.90
2019-01-15T18:17:04.697Z,5.90
2019-01-15T18:19:13.808Z,5.90
2019-01-15T18:21:17.075Z,6.00
2019-01-15T18:23:36.983Z,6.00
2019-01-15T18:25:46.101Z,6.00
2019-01-15T18:27:55.258Z,6.00
2019-01-15T18:30:01.438Z,6.00
2019-01-15T18:32:16.505Z,6.00
2019-01-15T18:34:25.650Z,6.00
2019-01-15T18:36:45.215Z,6.00
2019-01-15T18:38:51.171Z,6.10
2019-01-15T18:41:10.936Z,6.10
2019-01-15T18:43:19.889Z,6.00
2019-01-15T18:45:23.165Z,6.00
2019-01-15T18:47:41.270Z,6.00
2019-01-15T18:50:01.132Z,6.00
2019-01-15T18:52:04.518Z,5.90
2019-01-15T18:54:13.467Z,5.80
2019-01-15T18:56:25.534Z,5.80
2019-01-15T18:58:28.871Z,5.80
2019-01-15T19:00:50.314Z,5.70
2019-01-15T19:03:10.076Z,5.70
2019-01-15T19:05:19.204Z,5.70
2019-01-15T19:07:34.418Z,5.60
2019-01-15T19:09:54.274Z,5.60
2019-01-15T19:11:57.612Z,5.60
2019-01-15T19:14:01.217Z,5.60
2019-01-15T19:16:04.585Z,5.60
2019-01-15T19:18:07.841Z,5.50
2019-01-15T19:20:27.770Z,5.60
2019-01-15T19:22:31.032Z,5.50
2019-01-15T19:24:52.431Z,5.50
2019-01-15T19:27:13.767Z,5.50
2019-01-15T19:29:19.915Z,5.50
2019-01-15T19:31:28.876Z,5.50
2019-01-15T19:33:34.775Z,5.50
2019-01-15T19:35:38.039Z,5.50
2019-01-15T19:37:41.378Z,5.50
2019-01-15T19:39:59.685Z,5.50
2019-01-15T19:42:19.219Z,5.50
2019-01-15T19:44:22.563Z,5.50
2019-01-15T19:46:37.517Z,5.50
2019-01-15T19:48:40.787Z,5.50
2019-01-15T19:50:44.113Z,5.50
2019-01-15T19:53:00.764Z,5.60
2019-01-15T19:55:06.924Z,5.50
2019-01-15T19:57:16.141Z,5.60
2019-01-15T19:59:22.286Z,5.60
2019-01-15T20:01:34.620Z,5.60
2019-01-15T20:03:46.609Z,5.60
2019-01-15T20:05:49.885Z,5.60
2019-01-15T20:08:04.923Z,5.60
2019-01-15T20:10:19.873Z,5.60
2019-01-15T20:12:25.822Z,5.60
2019-01-15T20:14:34.869Z,5.70
2019-01-15T20:16:56.398Z,5.70
2019-01-15T20:18:59.680Z,5.70
2019-01-15T20:21:02.966Z,5.70
2019-01-15T20:23:06.296Z,5.70
2019-01-15T20:25:15.426Z,5.70
2019-01-15T20:27:36.787Z,5.70
2019-01-15T20:29:56.590Z,5.80
2019-01-15T20:31:59.913Z,5.70
2019-01-15T20:34:19.606Z,5.70
2019-01-15T20:36:31.754Z,5.70
2019-01-15T20:38:35.044Z,5.70
2019-01-15T20:40:50.346Z,5.70
2019-01-15T20:43:10.076Z,5.70
2019-01-15T20:45:16.582Z,5.70
2019-01-15T20:47:36.557Z,5.70
2019-01-15T20:49:48.779Z,5.70
2019-01-15T20:52:01.176Z,5.70
2019-01-15T20:54:11.033Z,5.70
2019-01-15T20:56:29.270Z,5.70
2019-01-15T20:58:32.646Z,5.70
2019-01-15T21:00:52.329Z,5.70
2019-01-15T21:03:07.453Z,5.70
2019-01-15T21:05:10.716Z,5.70
2019-01-15T21:07:13.992Z,5.70
2019-01-15T21:09:35.190Z,5.80
2019-01-15T21:11:53.629Z,5.80
2019-01-15T21:14:09.218Z,5.80
2019-01-15T21:16:15.266Z,5.80
2019-01-15T21:18:19.784Z,5.80
2019-01-15T21:20:23.320Z,5.80
2019-01-15T21:22:42.881Z,5.80
2019-01-15T21:24:46.160Z,5.80
2019-01-15T21:26:55.225Z,5.80
2019-01-15T21:28:58.707Z,5.80
2019-01-15T21:31:14.059Z,5.80
2019-01-15T21:33:20.255Z,5.80
2019-01-15T21:35:26.421Z,5.80
2019-01-15T21:37:46.053Z,5.80
2019-01-15T21:39:49.385Z,5.80
2019-01-15T21:42:07.477Z,5.80
2019-01-15T21:44:16.642Z,5.80
2019-01-15T21:46:28.990Z,5.80
2019-01-15T21:48:35.338Z,5.80
2019-01-15T21:50:56.672Z,5.80
2019-01-15T21:53:05.672Z,5.80
2019-01-15T21:55:25.493Z,5.80
2019-01-15T21:57:45.048Z,5.80
2019-01-15T21:59:48.373Z,5.80
2019-01-15T22:01:54.594Z,5.80
2019-01-15T22:04:00.911Z,5.70
2019-01-15T22:06:04.441Z,5.80
2019-01-15T22:08:16.428Z,5.80
2019-01-15T22:10:19.789Z,5.80
2019-01-15T22:12:31.798Z,5.80
2019-01-15T22:14:44.017Z,5.80
2019-01-15T22:17:02.172Z,5.80
2019-01-15T22:19:21.970Z,5.80
2019-01-15T22:21:25.247Z,5.80
2019-01-15T22:23:37.549Z,5.80
2019-01-15T22:25:57.146Z,5.80
2019-01-15T22:28:16.672Z,5.80
2019-01-15T22:30:20.009Z,5.80
2019-01-15T22:32:23.273Z,5.90
2019-01-15T22:34:32.420Z,5.90
2019-01-15T22:36:38.613Z,5.90
2019-01-15T22:38:58.153Z,5.90
2019-01-15T22:41:04.053Z,5.90
2019-01-15T22:43:16.123Z,5.90
2019-01-15T22:45:25.332Z,5.90
2019-01-15T22:47:28.660Z,5.90
2019-01-15T22:49:37.603Z,5.90
2019-01-15T22:51:40.879Z,5.90
2019-01-15T22:53:44.299Z,5.90
2019-01-15T22:55:47.570Z,5.90
2019-01-15T22:57:56.586Z,5.80
2019-01-15T22:59:59.913Z,5.80
2019-01-15T23:02:19.457Z,5.90
2019-01-15T23:04:22.719Z,5.90
2019-01-15T23:06:26.353Z,5.90
2019-01-15T23:08:47.429Z,5.90
2019-01-15T23:11:08.437Z,5.90
2019-01-15T23:13:17.755Z,5.90
2019-01-15T23:15:21.308Z,5.90
2019-01-15T23:17:24.570Z,5.90
2019-01-15T23:19:44.448Z,5.90
2019-01-15T23:21:59.451Z,5.90
2019-01-15T23:24:02.719Z,5.80
2019-01-15T23:26:22.299Z,5.90
2019-01-15T23:28:37.577Z,5.80
2019-01-15T23:30:57.071Z,5.80
2019-01-15T23:33:00.338Z,5.80
2019-01-15T23:35:03.691Z,5.80
2019-01-15T23:37:07.026Z,5.80
2019-01-15T23:39:13.238Z,5.80
2019-01-15T23:41:16.511Z,5.80
2019-01-15T23:43:25.573Z,5.80
2019-01-15T23:45:34.632Z,5.80
2019-01-15T23:47:49.904Z,5.80
2019-01-15T23:50:04.975Z,5.80
2019-01-15T23:52:08.329Z,5.80
2019-01-15T23:54:11.606Z,5.80
2019-01-15T23:56:14.872Z,5.80
2019-01-15T23:58:30.385Z,5.90
